• Join FlightAware (Why Join?)
  • Login
  • US Flag 
12:30AM EDT


 

Airport Tracker/Info


-or-


 

Live Flight TrackerFlight Track Log ✈ SWA2966 ✈ 03-May-2014 ✈ KOMA - KDEN

Flight Track Log - Related Links

Times and Time Zones

All times are in EDT time to prevent confusion due to time zone crossing. See the SWA2966 flight status page for this flight to view local times or setup timezone preferences in your user account.

Time Position Orientation Groundspeed Altitude Reporting Facility
EDT Latitude Longitude Course Direction KTS MPH feet Rate Location/Type
08:46AM 41.3108 -95.9094 316° Northwest 149 171 1,400  Level Minneapolis Center
08:47AM 41.3428 -95.9500 316° Northwest 204 235 3,100 2,280 Climbing Minneapolis Center
08:48AM 41.3475 -95.9683 289° West 216 249 4,200 2,220 Climbing Minneapolis Center
08:48AM 41.3544 -96.0319 278° West 240 276 5,400 1,740 Climbing Minneapolis Center
08:49AM 41.3600 -96.0461 298° West 224 258 6,000 3,000 Climbing Minneapolis Center
08:50AM 41.3758 -96.1397 283° West 245 282 9,400 2,580 Climbing Minneapolis Center
08:51AM 41.3878 -96.2400 279° West 260 299 11,400 2,580 Climbing Minneapolis Center
08:52AM 41.3894 -96.3619 271° West 309 356 14,700 3,180 Climbing Minneapolis Center
08:53AM 41.3894 -96.4864 270° West 330 380 17,900 3,180 Climbing Minneapolis Center
08:54AM 41.3700 -96.6419 261° West 351 404 21,200 2,760 Climbing Minneapolis Center
08:55AM 41.3525 -96.7772 260° West 365 420 23,600 2,280 Climbing Minneapolis Center
08:56AM 41.3350 -96.9181 261° West 379 436 25,900 2,100 Climbing Minneapolis Center
08:57AM 41.3164 -97.0628 260° West 390 449 27,900 1,680 Climbing Minneapolis Center
08:58AM 41.2961 -97.2131 260° West 400 460 29,400 1,680 Climbing Minneapolis Center
08:59AM 41.2747 -97.3658 259° West 411 473 31,400 1,980 Climbing Minneapolis Center
09:00AM 41.2550 -97.5158 260° West 413 475 33,500 1,860 Climbing Minneapolis Center
09:01AM 41.2353 -97.6628 260° West 411 473 35,200 1,500 Climbing Minneapolis Center
09:02AM 41.2153 -97.8108 260° West 410 472 36,600 1,260 Climbing Minneapolis Center
09:03AM 41.1947 -97.9586 260° West 410 472 37,800 660 Climbing Minneapolis Center
09:04AM 41.1742 -98.1075 260° West 410 472 38,000 60 Climbing Minneapolis Center
09:05AM 41.1533 -98.2558 259° West 409 471 38,000  Level Minneapolis Center
09:06AM 41.1325 -98.4039 259° West 409 471 38,000  Level Minneapolis Center
09:07AM 41.1072 -98.5767 259° West 409 471 38,000  Level Minneapolis Center
09:08AM 41.0858 -98.7228 259° West 408 470 38,000  Level Minneapolis Center
09:09AM 41.0636 -98.8714 259° West 408 470 38,000  Level Minneapolis Center
09:10AM 41.0422 -99.0181 259° West 409 471 38,000  Level Minneapolis Center
09:11AM 41.0225 -99.1514 259° West 408 470 38,000  Level Minneapolis Center
09:12AM 41.0017 -99.2986 259° West 408 470 38,000  Level Minneapolis Center
09:13AM 40.9789 -99.4453 258° West 408 470 38,000  Level Minneapolis Center
09:14AM 40.9522 -99.6217 259° West 408 470 38,000  Level Minneapolis Center
09:15AM 40.9300 -99.7697 259° West 408 470 38,000  Level Minneapolis Center
09:16AM 40.9058 -99.9186 258° West 409 471 38,000  Level Minneapolis Center
09:17AM 40.8828 -100.0656 258° West 409 471 38,000  Level Minneapolis Center
09:18AM 40.8597 -100.2142 258° West 409 471 38,000  Level Minneapolis Center
09:19AM 40.8356 -100.3600 258° West 409 471 38,000  Level Minneapolis Center
09:20AM 40.8117 -100.5072 258° West 409 471 38,000  Level Minneapolis Center
09:22AM 40.7783 -100.6989 257° West 408 470 38,000  Level Denver Center
09:23AM 40.7511 -100.8689 258° West 411 473 38,000  Level Denver Center
09:24AM 40.7283 -101.0092 258° West 409 471 38,000  Level Denver Center
09:25AM 40.7039 -101.1497 257° West 409 471 38,000  Level Denver Center
09:26AM 40.6758 -101.3131 257° West 410 472 38,000  Level Denver Center
09:27AM 40.6511 -101.4536 257° West 410 472 38,000  Level Denver Center
09:28AM 40.6264 -101.5942 257° West 410 472 38,000  Level Denver Center
09:29AM 40.5967 -101.7561 256° West 410 472 38,000  Level Denver Center
09:30AM 40.5703 -101.8944 256° West 409 471 38,000  Level Denver Center
09:31AM 40.5456 -102.0344 257° West 409 471 38,000  Level Denver Center
09:32AM 40.5156 -102.1975 256° West 410 472 38,000  Level Denver Center
09:33AM 40.4903 -102.3369 257° West 410 472 38,000  Level Denver Center
09:34AM 40.4644 -102.4767 256° West 411 473 38,000 -480 Level Denver Center
09:35AM 40.4333 -102.6383 256° West 410 472 37,100 -1,620 Descending Denver Center
09:36AM 40.4097 -102.7694 257° West 405 466 34,800 -2,580 Descending Denver Center
09:37AM 40.3808 -102.9142 255° West 407 468 31,900 -2,580 Descending Denver Center
09:38AM 40.3539 -103.0642 257° West 421 484 29,600 -2,220 Descending Denver Center
09:39AM 40.3258 -103.2114 256° West 418 481 27,400 -2,220 Descending Denver Center
09:40AM 40.2994 -103.3483 256° West 393 452 25,200 -2,160 Descending Denver Center
09:41AM 40.2731 -103.4803 255° West 379 436 23,100 -2,040 Descending Denver Center
09:42AM 40.2494 -103.6058 256° West 364 419 21,200 -1,860 Descending Denver Center
09:43AM 40.2225 -103.7414 255° West 339 390 19,400 -1,440 Descending Denver Center
09:44AM 40.2017 -103.8575 257° West 332 382 18,300 -1,320 Descending Denver Center
09:45AM 40.2097 -103.9669 276° West 304 350 16,800 -1,500 Descending Denver Center
09:46AM 40.2219 -104.0739 279° West 302 348 15,300 -1,560 Descending Denver Center
09:47AM 40.2311 -104.1833 276° West 287 330 13,700 -1,500 Descending Denver Center
09:48AM 40.2383 -104.2847 275° West 283 326 12,300 -1,500 Descending Denver Center
09:49AM 40.2056 -104.3736 244° Southwest 271 312 10,700 -1,560 Descending Denver Center
09:50AM 40.1739 -104.4647 246° West 275 316 9,200 -840 Descending Denver Center
09:51AM 40.1467 -104.5583 249° West 257 296 9,000 -600 Descending Denver Center
09:52AM 40.1178 -104.6322 243° Southwest 243 280 8,100 -660 Descending Denver Center
09:53AM 40.0586 -104.6722 207° Southwest 241 277 7,700 -600 Descending Denver Center
09:54AM 40.0014 -104.6858 190° South 210 242 7,000 -600 Descending Denver Center
09:55AM 39.9497 -104.6861 180° South 174 200 6,500 -660 Descending Denver Center
09:56AM 39.9097 -104.6872 181° South 148 170 5,700 -600 Descending Denver Center
09:57AM 39.8775 -104.6872 180° South 126 145 5,400 -300 Descending Denver Center
09:59AM 39.8617 -104.6732 North  Level Estimated
10:06AM 39.8617 -104.6732 North  Level Estimated
10:07AM 39.8617 -104.6732 North  Level Estimated